Time;durP1;ratioP1;P1;durP2;ratioP2;P2;SDS_P1;SDS_P2;PMS_P1;PMS_P2;Temp;Humidity;BMP_temperature;BMP_pressure;BME280_temperature;BME280_humidity;BME280_pressure;Samples;Min_cycle;Max_cycle;Signal;HPM_P1;HPM_P2
2021/11/12 00:02:47;;;;;;;;;;;;;;;22.29;28.76;98745.69;4934633;29;1906;-78
2021/11/12 00:13:27;;;;;;;;;;;;;;;22.24;29.77;98743.34;4983498;28;965;-78
2021/11/12 00:15:54;;;;;;;;;;;;;;;22.50;29.27;98743.72;4992573;28;993;-78
2021/11/12 00:18:24;;;;;;;;;;;;;;;22.72;28.97;98739.22;4976006;28;1279;-78
2021/11/12 00:20:49;;;;;;;;;;;;;;;22.39;29.06;98737.44;5011881;28;1026;-78
2021/11/12 00:23:15;;;;;;;;;;;;;;;22.41;28.90;98723.63;4970204;29;1954;-78
2021/11/12 00:25:42;;;;;;;;;;;;;;;22.43;29.00;98715.47;4924999;29;914;-78
2021/11/12 00:28:08;;;;;;;;;;;;;;;22.52;29.25;98724.22;4950623;29;1227;-78
2021/11/12 00:36:13;;;;;;;;;;;;;;;22.41;28.65;98717.94;4971619;29;1014;-79
2021/11/12 00:39:08;;;;;;;;;;;;;;;22.12;29.25;98709.94;4970152;29;1043;-78
2021/11/12 00:44:33;;;;;;;;;;;;;;;22.53;29.27;98703.13;4913294;29;1028;-78
2021/11/12 00:47:19;;;;;;;;;;;;;;;22.67;28.74;98691.50;4894894;29;1046;-78
2021/11/12 00:49:57;;;;;;;;;;;;;;;22.30;29.06;98701.94;4880728;29;1324;-78
2021/11/12 00:52:40;;;;;;;;;;;;;;;22.26;28.95;98697.56;4896077;29;941;-78
2021/11/12 00:55:06;;;;;;;;;;;;;;;22.26;29.21;98695.50;4912393;29;925;-78
2021/11/12 00:57:32;;;;;;;;;;;;;;;22.36;29.30;98694.53;4901443;29;968;-78
2021/11/12 00:59:58;;;;;;;;;;;;;;;22.57;28.97;98692.50;4899230;29;1053;-78
2021/11/12 01:02:23;;;;;;;;;;;;;;;22.67;28.48;98680.16;4879463;29;1888;-78
2021/11/12 01:04:49;;;;;;;;;;;;;;;22.43;29.04;98681.44;4886064;29;1023;-78
2021/11/12 01:07:14;;;;;;;;;;;;;;;22.00;29.66;98682.19;4934270;29;1059;-78
2021/11/12 01:09:40;;;;;;;;;;;;;;;21.82;29.59;98677.66;4931705;29;1076;-78
2021/11/12 01:12:06;;;;;;;;;;;;;;;22.30;29.38;98678.44;4933509;29;935;-79
2021/11/12 01:14:31;;;;;;;;;;;;;;;22.12;29.40;98675.94;4926819;29;939;-78
2021/11/12 01:16:57;;;;;;;;;;;;;;;22.21;29.75;98681.84;4931147;29;918;-79
2021/11/12 01:19:22;;;;;;;;;;;;;;;22.61;28.83;98671.34;4891748;29;963;-78
2021/11/12 01:21:48;;;;;;;;;;;;;;;22.69;28.92;98677.69;4894205;29;999;-78
2021/11/12 01:24:13;;;;;;;;;;;;;;;22.47;28.66;98682.19;4951438;29;1980;-78
2021/11/12 01:26:38;;;;;;;;;;;;;;;22.38;28.70;98673.44;4971372;29;860;-78
2021/11/12 01:29:04;;;;;;;;;;;;;;;22.35;28.77;98669.44;4969525;29;936;-78
2021/11/12 01:31:30;;;;;;;;;;;;;;;22.31;30.01;98674.38;4918430;29;1162;-78
2021/11/12 01:33:56;;;;;;;;;;;;;;;22.41;29.39;98673.38;4893185;29;1111;-78
2021/11/12 01:38:50;;;;;;;;;;;;;;;22.19;29.34;98666.50;4842558;29;920;-79
2021/11/12 01:41:17;;;;;;;;;;;;;;;22.30;29.04;98662.25;4840627;29;1013;-78
2021/11/12 01:43:46;;;;;;;;;;;;;;;22.36;28.91;98666.16;4817106;29;1982;-78
2021/11/12 01:51:28;;;;;;;;;;;;;;;22.73;28.56;98661.38;4825713;29;885;-78
2021/11/12 01:56:43;;;;;;;;;;;;;;;22.36;28.66;98654.81;4857191;29;944;-78
2021/11/12 01:59:12;;;;;;;;;;;;;;;22.27;29.12;98648.91;4892557;29;1291;-78
2021/11/12 02:01:40;;;;;;;;;;;;;;;22.38;29.32;98647.91;4874280;29;939;-79
2021/11/12 02:04:07;;;;;;;;;;;;;;;22.60;28.94;98637.75;4856030;29;1900;-78
2021/11/12 02:06:32;;;;;;;;;;;;;;;22.46;28.96;98646.56;4839180;29;920;-78
2021/11/12 02:08:58;;;;;;;;;;;;;;;22.42;28.48;98640.94;4855451;29;898;-78
2021/11/12 02:11:23;;;;;;;;;;;;;;;22.29;28.85;98637.97;4875752;29;1288;-78
2021/11/12 02:13:50;;;;;;;;;;;;;;;22.41;29.12;98639.34;4873483;29;981;-78
2021/11/12 02:16:30;;;;;;;;;;;;;;;22.35;29.07;98641.88;4895082;29;1122;-78
2021/11/12 02:18:56;;;;;;;;;;;;;;;22.16;29.65;98639.81;4892351;29;895;-78
2021/11/12 02:21:30;;;;;;;;;;;;;;;22.30;29.06;98645.22;4873125;29;963;-78
2021/11/12 02:26:28;;;;;;;;;;;;;;;22.31;29.41;98635.47;4897443;29;967;-78
2021/11/12 02:28:56;;;;;;;;;;;;;;;22.12;29.42;98639.09;4929143;29;1212;-78
2021/11/12 02:31:21;;;;;;;;;;;;;;;22.39;29.66;98641.03;4914234;29;939;-78
2021/11/12 02:33:47;;;;;;;;;;;;;;;22.72;28.77;98637.09;4895883;29;889;-78
2021/11/12 02:36:13;;;;;;;;;;;;;;;22.57;28.83;98630.13;4878075;29;994;-78
2021/11/12 02:38:42;;;;;;;;;;;;;;;22.56;28.91;98622.84;4928294;29;908;-78
2021/11/12 02:41:07;;;;;;;;;;;;;;;22.20;29.12;98617.88;4971126;28;946;-78
2021/11/12 02:43:33;;;;;;;;;;;;;;;22.40;29.15;98614.28;4967741;29;1879;-77
2021/11/12 02:46:02;;;;;;;;;;;;;;;22.55;29.02;98615.59;4971365;28;919;-78
2021/11/12 02:48:28;;;;;;;;;;;;;;;22.66;28.83;98610.47;4909808;29;896;-78
2021/11/12 02:50:55;;;;;;;;;;;;;;;22.47;28.67;98608.44;4913396;29;975;-79
2021/11/12 02:53:21;;;;;;;;;;;;;;;22.30;28.81;98611.22;4903453;29;1000;-78
2021/11/12 02:55:46;;;;;;;;;;;;;;;22.24;28.91;98624.28;4914161;29;901;-78
2021/11/12 02:58:12;;;;;;;;;;;;;;;22.41;29.46;98619.50;4914587;29;832;-78
2021/11/12 03:00:39;;;;;;;;;;;;;;;22.60;28.88;98618.69;4879861;29;913;-78
2021/11/12 03:03:04;;;;;;;;;;;;;;;22.35;29.23;98622.03;4877784;29;1974;-79
2021/11/12 03:05:30;;;;;;;;;;;;;;;22.20;29.30;98628.44;4877916;29;1205;-79
2021/11/12 03:07:56;;;;;;;;;;;;;;;22.41;28.61;98627.22;4877619;29;1058;-78
2021/11/12 03:10:22;;;;;;;;;;;;;;;22.44;28.50;98617.84;4840210;29;1064;-78
2021/11/12 03:12:48;;;;;;;;;;;;;;;22.27;28.87;98622.59;4841259;29;911;-78
2021/11/12 03:15:13;;;;;;;;;;;;;;;22.36;28.88;98615.13;4843071;29;886;-78
2021/11/12 03:17:39;;;;;;;;;;;;;;;22.19;29.29;98613.47;4859574;29;1007;-79
2021/11/12 03:20:05;;;;;;;;;;;;;;;22.23;29.48;98617.03;4872071;29;936;-78
2021/11/12 03:22:37;;;;;;;;;;;;;;;22.27;29.21;98611.25;4878836;29;1888;-78
2021/11/12 03:25:23;;;;;;;;;;;;;;;22.65;28.98;98614.56;4876527;29;946;-78
2021/11/12 03:28:08;;;;;;;;;;;;;;;22.76;28.65;98615.13;4877401;29;1400;-78
2021/11/12 04:00:46;;;;;;;;;;;;;;;22.05;29.54;98605.97;4937865;29;911;-78
2021/11/12 05:43:33;;;;;;;;;;;;;;;22.43;29.75;98645.38;4949269;29;1020;-80
2021/11/12 05:46:03;;;;;;;;;;;;;;;22.23;29.46;98636.06;4914334;29;898;-80
2021/11/12 05:56:31;;;;;;;;;;;;;;;22.26;29.20;98655.03;4914087;29;1162;-80
2021/11/12 05:58:56;;;;;;;;;;;;;;;22.33;28.85;98650.03;4911330;29;901;-80
2021/11/12 06:01:22;;;;;;;;;;;;;;;22.39;28.99;98653.16;4913315;29;999;-79
2021/11/12 06:03:47;;;;;;;;;;;;;;;22.21;29.39;98653.50;4891466;29;1910;-80
2021/11/12 06:06:13;;;;;;;;;;;;;;;22.22;29.68;98654.28;4913354;29;931;-80
2021/11/12 06:08:38;;;;;;;;;;;;;;;22.28;29.42;98659.06;4933061;29;960;-79
2021/11/12 06:11:04;;;;;;;;;;;;;;;22.40;29.48;98656.81;4952720;29;1221;-79
2021/11/12 06:13:29;;;;;;;;;;;;;;;22.39;29.31;98658.03;4930541;29;971;-79
2021/11/12 06:15:55;;;;;;;;;;;;;;;22.47;29.50;98653.81;4913985;29;1221;-80
2021/11/12 06:18:21;;;;;;;;;;;;;;;22.49;29.53;98657.03;4911052;29;1003;-80
2021/11/12 06:20:47;;;;;;;;;;;;;;;22.64;29.40;98652.69;4932723;29;991;-79
2021/11/12 06:23:12;;;;;;;;;;;;;;;22.52;29.40;98656.94;4930544;29;1988;-79
2021/11/12 06:25:38;;;;;;;;;;;;;;;22.00;30.12;98648.19;4950897;29;1012;-79
2021/11/12 06:28:03;;;;;;;;;;;;;;;22.02;29.92;98640.03;4948644;29;931;-79
2021/11/12 06:30:29;;;;;;;;;;;;;;;22.20;29.46;98646.22;4938349;29;922;-80
2021/11/12 06:32:54;;;;;;;;;;;;;;;22.44;29.74;98654.69;4920248;29;832;-80
2021/11/12 06:35:20;;;;;;;;;;;;;;;22.66;29.55;98653.03;4884282;29;993;-79
2021/11/12 06:37:45;;;;;;;;;;;;;;;22.60;28.91;98651.94;4879418;29;1276;-79
2021/11/12 06:40:17;;;;;;;;;;;;;;;22.40;29.41;98654.75;4873907;29;1177;-79
2021/11/12 06:42:58;;;;;;;;;;;;;;;22.37;29.22;98655.63;4878731;29;1903;-79
2021/11/12 06:50:34;;;;;;;;;;;;;;;22.28;29.69;98647.72;4909334;29;947;-79
2021/11/12 06:53:00;;;;;;;;;;;;;;;22.22;30.10;98649.41;4934799;29;778;-79
2021/11/12 06:55:25;;;;;;;;;;;;;;;22.57;29.62;98641.47;4934549;29;809;-79
2021/11/12 06:57:51;;;;;;;;;;;;;;;22.74;29.37;98645.97;4935334;29;928;-79
2021/11/12 07:00:19;;;;;;;;;;;;;;;22.73;29.40;98655.69;4935465;29;1003;-79
2021/11/12 07:02:45;;;;;;;;;;;;;;;22.65;28.92;98654.28;4954443;29;1887;-80
2021/11/12 07:05:10;;;;;;;;;;;;;;;22.29;29.68;98654.97;4955439;29;1254;-79
2021/11/12 07:07:36;;;;;;;;;;;;;;;22.32;29.21;98656.91;4973440;29;901;-79
2021/11/12 07:10:01;;;;;;;;;;;;;;;22.41;29.04;98655.56;4971748;29;1051;-79
2021/11/12 07:12:27;;;;;;;;;;;;;;;22.22;29.61;98655.09;4954489;29;955;-79
2021/11/12 07:14:52;;;;;;;;;;;;;;;22.43;29.94;98650.25;4952087;29;1258;-79
2021/11/12 07:17:18;;;;;;;;;;;;;;;22.58;29.82;98654.41;4935309;29;1082;-79
2021/11/12 07:19:43;;;;;;;;;;;;;;;22.50;29.33;98659.44;4933646;29;835;-79
2021/11/12 07:22:09;;;;;;;;;;;;;;;22.32;29.64;98654.09;4926767;29;982;-79
2021/11/12 07:24:35;;;;;;;;;;;;;;;22.16;29.66;98656.03;4913555;29;1969;-80
2021/11/12 07:27:00;;;;;;;;;;;;;;;22.31;29.22;98646.03;4908310;29;924;-81
2021/11/12 07:29:27;;;;;;;;;;;;;;;22.33;30.17;98652.88;4892809;29;964;-80
2021/11/12 07:31:54;;;;;;;;;;;;;;;22.70;29.17;98645.25;4879213;29;996;-80
2021/11/12 07:34:20;;;;;;;;;;;;;;;22.61;29.17;98653.53;4877639;29;946;-81
2021/11/12 07:36:52;;;;;;;;;;;;;;;22.20;29.65;98646.22;4878837;29;893;-80
2021/11/12 07:39:24;;;;;;;;;;;;;;;22.41;29.33;98644.22;4877189;29;933;-80
2021/11/12 07:42:12;;;;;;;;;;;;;;;22.34;29.46;98654.47;4879032;29;967;-80
2021/11/12 07:44:41;;;;;;;;;;;;;;;22.51;29.74;98661.03;4858432;29;1855;-80
2021/11/12 07:49:37;;;;;;;;;;;;;;;22.41;29.57;98655.56;4912940;29;1155;-80
2021/11/12 07:52:03;;;;;;;;;;;;;;;22.32;29.62;98648.41;4899691;29;1285;-80
2021/11/12 07:54:28;;;;;;;;;;;;;;;22.32;29.04;98647.63;4933075;29;1280;-80
2021/11/12 07:56:54;;;;;;;;;;;;;;;22.36;29.89;98649.16;4925606;29;1323;-80
2021/11/12 07:59:19;;;;;;;;;;;;;;;22.62;29.40;98649.47;4942619;29;1385;-81
2021/11/12 08:01:45;;;;;;;;;;;;;;;22.72;29.10;98639.94;4938938;29;1314;-81
2021/11/12 08:04:10;;;;;;;;;;;;;;;22.51;29.05;98644.00;4924887;29;1964;-80
2021/11/12 08:06:36;;;;;;;;;;;;;;;22.23;29.08;98648.22;4964767;28;1299;-80
2021/11/12 08:09:05;;;;;;;;;;;;;;;22.28;28.66;98647.72;4959638;29;1452;-80
2021/11/12 08:11:45;;;;;;;;;;;;;;;22.24;29.54;98646.97;4937658;29;1350;-80
2021/11/12 08:14:14;;;;;;;;;;;;;;;22.55;29.44;98658.13;4934009;29;989;-80
2021/11/12 08:19:42;;;;;;;;;;;;;;;22.49;29.08;98645.69;4932636;29;1218;-80
2021/11/12 08:22:09;;;;;;;;;;;;;;;22.63;28.74;98651.06;4943575;29;1213;-80
2021/11/12 08:27:43;;;;;;;;;;;;;;;22.24;29.18;98652.63;4941608;28;1199;-81
2021/11/12 08:43:31;;;;;;;;;;;;;;;22.30;29.45;98645.22;4951367;29;1896;-80
2021/11/12 08:48:40;;;;;;;;;;;;;;;22.44;29.60;98640.53;4950489;29;891;-80
2021/11/12 08:51:11;;;;;;;;;;;;;;;22.70;29.23;98638.78;4990698;28;971;-80
2021/11/12 08:53:37;;;;;;;;;;;;;;;22.52;29.20;98637.09;4920158;29;936;-80
2021/11/12 08:56:02;;;;;;;;;;;;;;;22.34;29.31;98640.28;4955198;29;881;-80
2021/11/12 08:58:28;;;;;;;;;;;;;;;22.10;29.12;98635.84;4950194;29;780;-80
2021/11/12 09:00:53;;;;;;;;;;;;;;;22.24;29.00;98632.78;4934737;29;879;-80
2021/11/12 09:03:19;;;;;;;;;;;;;;;22.27;28.94;98629.06;4924774;29;1879;-80
2021/11/12 09:05:44;;;;;;;;;;;;;;;22.54;29.85;98631.00;4943631;29;1318;-80
2021/11/12 09:08:10;;;;;;;;;;;;;;;22.69;29.08;98620.97;4970243;29;1034;-80
2021/11/12 09:10:35;;;;;;;;;;;;;;;22.61;29.06;98617.47;4971749;28;1245;-80
2021/11/12 09:13:16;;;;;;;;;;;;;;;22.32;29.19;98620.06;4951739;29;1021;-80
2021/11/12 09:15:48;;;;;;;;;;;;;;;22.27;29.57;98617.72;4952834;29;913;-80
2021/11/12 09:18:13;;;;;;;;;;;;;;;22.35;29.25;98619.22;4964572;29;963;-81
2021/11/12 09:20:39;;;;;;;;;;;;;;;22.49;29.31;98617.34;4972126;29;990;-80
2021/11/12 09:23:04;;;;;;;;;;;;;;;22.54;29.50;98614.00;4971023;29;1883;-80
2021/11/12 09:25:30;;;;;;;;;;;;;;;22.65;29.08;98608.09;5005415;28;942;-80
2021/11/12 09:27:55;;;;;;;;;;;;;;;22.26;29.68;98616.13;5009716;28;1048;-81
2021/11/12 09:30:22;;;;;;;;;;;;;;;22.25;29.38;98608.88;4990430;28;1345;-80
2021/11/12 09:32:48;;;;;;;;;;;;;;;22.34;28.86;98611.94;4934458;29;846;-80
2021/11/12 09:35:13;;;;;;;;;;;;;;;22.32;29.08;98603.06;4932122;29;969;-80
2021/11/12 09:37:39;;;;;;;;;;;;;;;22.32;29.09;98602.25;4916508;29;916;-80
2021/11/12 09:40:05;;;;;;;;;;;;;;;22.39;29.46;98590.00;4912701;29;884;-80
2021/11/12 09:42:31;;;;;;;;;;;;;;;22.66;29.63;98599.13;4914323;29;1984;-80
2021/11/12 09:44:56;;;;;;;;;;;;;;;22.71;29.27;98590.09;4964315;28;1038;-80
2021/11/12 09:47:27;;;;;;;;;;;;;;;22.53;29.48;98595.34;4968959;28;1049;-80
2021/11/12 09:49:56;;;;;;;;;;;;;;;22.49;29.01;98589.78;4921453;29;890;-80
2021/11/12 09:52:22;;;;;;;;;;;;;;;22.10;29.56;98590.50;4937098;29;885;-81
2021/11/12 09:54:47;;;;;;;;;;;;;;;22.38;29.37;98594.03;4950834;29;1003;-80
2021/11/12 09:57:13;;;;;;;;;;;;;;;22.57;29.64;98590.41;4936586;29;963;-80
2021/11/12 09:59:39;;;;;;;;;;;;;;;22.81;29.39;98583.41;4960398;29;929;-81
2021/11/12 10:02:06;;;;;;;;;;;;;;;22.31;29.49;98587.28;4930508;29;931;-81
2021/11/12 10:04:33;;;;;;;;;;;;;;;22.26;29.36;98581.31;4943182;29;2009;-79
2021/11/12 10:06:59;;;;;;;;;;;;;;;22.34;29.16;98577.91;4952480;29;883;-79
2021/11/12 10:09:24;;;;;;;;;;;;;;;22.33;29.07;98581.19;4950770;29;1137;-79
2021/11/12 10:11:51;;;;;;;;;;;;;;;22.28;29.27;98571.16;4933445;29;897;-79
2021/11/12 10:14:26;;;;;;;;;;;;;;;22.00;29.98;98566.00;4923351;29;1623;-78
2021/11/12 10:16:55;;;;;;;;;;;;;;;22.21;29.61;98565.63;4913926;29;802;-78
2021/11/12 10:19:21;;;;;;;;;;;;;;;22.39;30.31;98572.97;4912308;29;999;-79
2021/11/12 10:21:54;;;;;;;;;;;;;;;22.65;30.03;98562.69;4914654;29;927;-79
2021/11/12 10:24:19;;;;;;;;;;;;;;;22.76;29.15;98552.72;4919107;29;1914;-79
2021/11/12 10:26:46;;;;;;;;;;;;;;;22.57;29.33;98562.03;4933729;29;1009;-79
2021/11/12 10:29:14;;;;;;;;;;;;;;;21.87;30.18;98553.75;4912758;29;975;-79
2021/11/12 10:31:52;;;;;;;;;;;;;;;22.10;29.95;98559.34;4968525;28;894;-78
2021/11/12 10:34:21;;;;;;;;;;;;;;;22.23;29.54;98554.66;4969254;28;958;-79
2021/11/12 10:36:47;;;;;;;;;;;;;;;22.62;29.73;98547.34;4990186;28;894;-79
2021/11/12 10:39:12;;;;;;;;;;;;;;;22.65;29.60;98537.97;4988789;28;978;-79
2021/11/12 10:41:38;;;;;;;;;;;;;;;22.47;29.76;98540.38;4970771;28;1229;-78
2021/11/12 10:44:10;;;;;;;;;;;;;;;22.26;29.88;98545.28;4958761;28;1891;-79
2021/11/12 10:46:38;;;;;;;;;;;;;;;22.15;29.89;98544.69;4951526;28;1151;-78
2021/11/12 10:49:30;;;;;;;;;;;;;;;22.27;29.62;98546.88;4940133;29;1271;-79
2021/11/12 10:51:57;;;;;;;;;;;;;;;22.39;29.69;98538.97;4990103;28;1239;-80
2021/11/12 10:54:34;;;;;;;;;;;;;;;22.52;29.78;98537.03;4988259;28;1099;-80
2021/11/12 10:56:59;;;;;;;;;;;;;;;22.74;29.29;98543.84;4975368;28;979;-80
2021/11/12 10:59:25;;;;;;;;;;;;;;;22.39;29.83;98533.28;4985092;28;839;-79
2021/11/12 11:01:50;;;;;;;;;;;;;;;22.42;29.43;98529.56;4971780;29;997;-79
2021/11/12 11:04:19;;;;;;;;;;;;;;;22.61;29.01;98531.56;4949912;29;1911;-79
2021/11/12 11:06:44;;;;;;;;;;;;;;;22.40;29.28;98535.69;4953195;29;908;-79
2021/11/12 11:09:10;;;;;;;;;;;;;;;22.30;29.56;98540.34;4969966;29;1055;-79
2021/11/12 11:11:39;;;;;;;;;;;;;;;22.57;30.06;98528.00;4968088;29;1268;-79
2021/11/12 11:14:05;;;;;;;;;;;;;;;22.69;29.55;98529.34;4969142;29;951;-79
2021/11/12 11:16:35;;;;;;;;;;;;;;;22.51;29.65;98529.78;4972301;28;1018;-79
2021/11/12 11:19:01;;;;;;;;;;;;;;;22.30;29.86;98520.50;4982534;28;922;-79
2021/11/12 11:21:27;;;;;;;;;;;;;;;22.25;29.84;98529.50;4994453;28;974;-79
2021/11/12 11:23:57;;;;;;;;;;;;;;;22.24;29.68;98521.44;4991522;28;1960;-79
2021/11/12 11:26:23;;;;;;;;;;;;;;;22.62;29.73;98524.66;4994372;28;945;-79
2021/11/12 11:28:49;;;;;;;;;;;;;;;22.81;29.37;98520.97;4947895;29;984;-79
2021/11/12 11:31:14;;;;;;;;;;;;;;;22.65;29.00;98518.13;4995145;28;1030;-79
2021/11/12 11:33:41;;;;;;;;;;;;;;;22.47;29.35;98520.53;4972052;29;1389;-80
2021/11/12 11:36:07;;;;;;;;;;;;;;;22.31;28.99;98513.56;4975545;29;961;-80
2021/11/12 11:38:34;;;;;;;;;;;;;;;22.39;29.36;98513.44;4919516;29;968;-80
2021/11/12 11:41:00;;;;;;;;;;;;;;;22.31;29.56;98509.94;4930072;29;1022;-79
2021/11/12 11:43:25;;;;;;;;;;;;;;;22.40;29.39;98506.53;4911582;29;1983;-80
2021/11/12 11:45:52;;;;;;;;;;;;;;;22.36;29.52;98504.56;4901722;29;1236;-80
2021/11/12 11:48:18;;;;;;;;;;;;;;;22.31;30.30;98505.06;4896712;29;943;-80
2021/11/12 11:50:56;;;;;;;;;;;;;;;22.61;30.15;98500.38;4914339;29;879;-79
2021/11/12 11:53:22;;;;;;;;;;;;;;;22.80;29.70;98496.69;4895944;29;919;-80
2021/11/12 11:55:47;;;;;;;;;;;;;;;22.46;29.81;98494.22;4913916;29;1585;-81
2021/11/12 11:58:31;;;;;;;;;;;;;;;22.38;29.80;98491.97;4896839;29;975;-81
2021/11/12 12:01:29;;;;;;;;;;;;;;;22.30;29.52;98491.34;4935686;29;1141;-80
2021/11/12 12:04:10;;;;;;;;;;;;;;;22.42;29.36;98481.34;4976546;28;1891;-81
2021/11/12 12:06:36;;;;;;;;;;;;;;;22.57;29.90;98482.63;5001101;28;1366;-81
2021/11/12 12:09:09;;;;;;;;;;;;;;;22.74;29.77;98474.94;5001392;28;1271;-80
2021/11/12 12:11:55;;;;;;;;;;;;;;;22.60;29.33;98476.09;5016818;28;1321;-80
2021/11/12 12:14:27;;;;;;;;;;;;;;;22.16;30.05;98472.59;5030280;28;1218;-80
2021/11/12 12:17:12;;;;;;;;;;;;;;;22.26;29.54;98473.59;4992830;28;1319;-81
2021/11/12 12:19:47;;;;;;;;;;;;;;;22.33;30.20;98474.25;4991094;28;1267;-80
2021/11/12 12:34:09;;;;;;;;;;;;;;;22.29;29.88;98467.88;4943596;29;1180;-81
2021/11/12 13:21:31;;;;;;;;;;;;;;;22.40;29.23;98466.84;4907779;29;1185;-81
2021/11/12 13:27:16;;;;;;;;;;;;;;;22.02;29.76;98462.34;4933699;29;1229;-80
2021/11/12 13:29:41;;;;;;;;;;;;;;;22.23;29.88;98463.97;4937209;29;1382;-81
2021/11/12 13:32:07;;;;;;;;;;;;;;;22.31;30.03;98461.75;4927082;29;1292;-80
2021/11/12 13:34:45;;;;;;;;;;;;;;;22.55;29.79;98462.44;4945541;29;1311;-81
2021/11/12 13:37:17;;;;;;;;;;;;;;;22.59;29.81;98463.94;4943466;29;1240;-81
2021/11/12 13:39:43;;;;;;;;;;;;;;;22.30;29.82;98463.00;4945873;29;1377;-80
2021/11/12 13:42:09;;;;;;;;;;;;;;;22.28;29.67;98460.59;4942793;29;1176;-80
2021/11/12 13:44:38;;;;;;;;;;;;;;;22.27;29.75;98470.31;4940601;29;1949;-81
2021/11/12 13:47:11;;;;;;;;;;;;;;;22.43;30.01;98468.78;4927207;29;1157;-81
2021/11/12 13:49:40;;;;;;;;;;;;;;;22.66;29.80;98462.19;4931487;29;1240;-81
2021/11/12 13:52:28;;;;;;;;;;;;;;;22.65;29.59;98461.38;4928835;29;890;-80
2021/11/12 13:54:56;;;;;;;;;;;;;;;22.31;29.73;98465.38;4913364;29;938;-80
2021/11/12 13:57:23;;;;;;;;;;;;;;;22.36;29.63;98467.69;4906076;29;921;-79
2021/11/12 13:59:52;;;;;;;;;;;;;;;22.33;29.58;98457.25;4889195;29;951;-80
2021/11/12 14:02:17;;;;;;;;;;;;;;;22.30;29.52;98457.31;4875322;29;991;-80
2021/11/12 14:04:43;;;;;;;;;;;;;;;22.53;30.47;98459.22;4857932;29;1900;-80
2021/11/12 14:07:16;;;;;;;;;;;;;;;22.90;29.52;98454.31;4937308;29;1073;-80
2021/11/12 14:09:41;;;;;;;;;;;;;;;22.48;29.81;98451.25;4975436;28;1046;-80
2021/11/12 14:12:11;;;;;;;;;;;;;;;22.04;30.04;98461.91;4994514;28;1013;-80
2021/11/12 14:14:38;;;;;;;;;;;;;;;22.09;30.05;98464.22;5009557;28;1005;-80
2021/11/12 14:17:18;;;;;;;;;;;;;;;22.27;29.49;98464.66;4990597;28;986;-80
2021/11/12 14:19:58;;;;;;;;;;;;;;;22.44;29.97;98473.22;5006557;28;982;-79
2021/11/12 14:25:17;;;;;;;;;;;;;;;22.48;29.12;98473.91;5028205;28;986;-80
2021/11/12 14:27:52;;;;;;;;;;;;;;;22.17;29.38;98465.69;5014203;28;906;-82
2021/11/12 14:46:12;;;;;;;;;;;;;;;22.05;29.89;98469.16;4951291;29;958;-80
2021/11/12 14:48:41;;;;;;;;;;;;;;;22.62;29.81;98476.44;4947540;29;900;-80
2021/11/12 14:51:16;;;;;;;;;;;;;;;22.76;29.10;98456.25;4944951;29;871;-80
2021/11/12 14:56:23;;;;;;;;;;;;;;;22.27;29.48;98473.16;4969842;28;945;-78
2021/11/12 14:58:55;;;;;;;;;;;;;;;22.25;29.29;98467.13;4962396;29;1120;-79
2021/11/12 15:01:22;;;;;;;;;;;;;;;22.49;28.81;98475.53;4967406;28;1303;-79
2021/11/12 15:03:49;;;;;;;;;;;;;;;22.44;29.86;98470.38;4966961;29;1891;-79
2021/11/12 15:06:16;;;;;;;;;;;;;;;22.72;28.78;98466.88;4961605;29;1333;-79
2021/11/12 15:11:14;;;;;;;;;;;;;;;22.68;29.04;98474.66;4963391;28;1237;-79
2021/11/12 15:13:40;;;;;;;;;;;;;;;22.52;29.01;98475.44;4984009;28;1421;-79
2021/11/12 15:16:27;;;;;;;;;;;;;;;22.36;29.38;98479.03;4989019;28;1394;-79
2021/11/12 15:18:55;;;;;;;;;;;;;;;22.17;29.30;98476.22;4984574;28;1183;-79
2021/11/12 15:21:27;;;;;;;;;;;;;;;22.33;29.35;98481.97;5001139;28;1230;-77
2021/11/12 15:24:02;;;;;;;;;;;;;;;22.28;29.81;98477.63;5045293;28;1910;-79
2021/11/12 15:26:35;;;;;;;;;;;;;;;22.40;29.64;98478.16;5047701;28;816;-79
2021/11/12 15:34:12;;;;;;;;;;;;;;;22.30;29.76;98489.31;5009866;28;1285;-79
2021/11/12 15:36:44;;;;;;;;;;;;;;;22.32;29.79;98483.97;5028429;28;940;-79
2021/11/12 15:39:12;;;;;;;;;;;;;;;22.29;29.72;98501.09;5025205;28;774;-79
2021/11/12 15:44:18;;;;;;;;;;;;;;;22.75;29.41;98493.59;4985611;28;1962;-78
2021/11/12 15:46:47;;;;;;;;;;;;;;;22.43;29.57;98494.28;4987414;28;896;-78
2021/11/12 15:49:17;;;;;;;;;;;;;;;22.35;29.63;98493.66;4985908;28;1010;-79
2021/11/12 15:51:54;;;;;;;;;;;;;;;22.46;29.23;98504.75;4987542;28;922;-79
2021/11/12 15:54:42;;;;;;;;;;;;;;;22.31;29.85;98499.41;4985256;28;936;-79
2021/11/12 16:00:17;;;;;;;;;;;;;;;22.50;30.08;98505.50;4946811;29;1009;-79
2021/11/12 16:25:28;;;;;;;;;;;;;;;22.41;29.65;98527.97;4986283;28;827;-78
2021/11/12 16:27:58;;;;;;;;;;;;;;;22.21;29.83;98527.97;4985330;28;1311;-79
2021/11/12 16:30:28;;;;;;;;;;;;;;;22.44;29.62;98512.94;4986079;28;959;-79
2021/11/12 16:32:55;;;;;;;;;;;;;;;22.28;30.41;98520.13;4986268;28;909;-79
2021/11/12 16:35:26;;;;;;;;;;;;;;;22.80;29.67;98525.06;4986709;28;964;-79
2021/11/12 16:37:56;;;;;;;;;;;;;;;22.57;29.68;98525.97;4968819;28;978;-78
2021/11/12 16:45:57;;;;;;;;;;;;;;;22.07;29.82;98534.69;4947777;29;901;-78
2021/11/12 17:04:09;;;;;;;;;;;;;;;22.29;29.87;98518.09;4964686;29;1887;-79
2021/11/12 17:14:59;;;;;;;;;;;;;;;22.34;29.90;98515.53;4944660;29;923;-78
2021/11/12 17:46:59;;;;;;;;;;;;;;;22.26;29.71;98516.91;4956565;28;1179;-79
2021/11/12 18:05:34;;;;;;;;;;;;;;;22.68;29.73;98511.53;4983839;28;1104;-79
2021/11/12 21:45:25;;;;;;;;;;;;;;;22.32;29.93;98515.16;4952489;29;966;-79
2021/11/12 21:47:51;;;;;;;;;;;;;;;22.48;29.66;98513.63;4965149;29;1019;-78
2021/11/12 21:50:17;;;;;;;;;;;;;;;22.27;29.95;98510.00;4964957;29;835;-79
2021/11/12 21:52:42;;;;;;;;;;;;;;;22.22;30.04;98510.53;4965698;29;968;-79
2021/11/12 21:55:08;;;;;;;;;;;;;;;22.36;29.91;98515.91;4919138;29;1167;-79
2021/11/12 21:57:34;;;;;;;;;;;;;;;22.75;29.72;98517.06;4908849;29;867;-78
2021/11/12 22:00:00;;;;;;;;;;;;;;;22.76;29.68;98509.34;4937389;29;957;-78
2021/11/12 22:02:25;;;;;;;;;;;;;;;22.59;29.85;98520.69;4947000;29;870;-79
2021/11/12 22:04:51;;;;;;;;;;;;;;;22.24;30.04;98516.56;4944919;29;1914;-79
2021/11/12 22:07:16;;;;;;;;;;;;;;;22.31;29.72;98516.41;4947500;29;799;-77
2021/11/12 22:09:42;;;;;;;;;;;;;;;22.03;30.29;98517.00;4965691;28;1129;-78
2021/11/12 22:12:09;;;;;;;;;;;;;;;22.38;29.84;98514.66;4984863;28;991;-78
2021/11/12 22:14:34;;;;;;;;;;;;;;;22.47;30.56;98512.81;4982666;28;823;-78
2021/11/12 22:17:00;;;;;;;;;;;;;;;22.69;29.71;98513.16;4985439;28;899;-78
2021/11/12 22:19:25;;;;;;;;;;;;;;;22.48;30.06;98507.94;4983243;28;915;-78
2021/11/12 22:21:52;;;;;;;;;;;;;;;22.20;30.12;98506.53;4985277;28;1030;-78
2021/11/12 22:24:18;;;;;;;;;;;;;;;22.20;29.95;98510.16;4984774;28;1907;-78
2021/11/12 22:26:46;;;;;;;;;;;;;;;22.52;30.47;98514.34;4941866;29;1543;-78
2021/11/12 22:29:12;;;;;;;;;;;;;;;22.72;29.57;98509.44;4944470;29;994;-79
2021/11/12 22:31:38;;;;;;;;;;;;;;;22.57;29.57;98505.31;4946494;29;944;-78
2021/11/12 22:34:03;;;;;;;;;;;;;;;22.43;29.88;98506.44;4944954;29;930;-78
2021/11/12 22:36:28;;;;;;;;;;;;;;;22.29;29.66;98518.91;4927560;29;1002;-78
2021/11/12 22:38:54;;;;;;;;;;;;;;;22.15;29.58;98513.50;4925008;29;1130;-78
2021/11/12 22:41:19;;;;;;;;;;;;;;;22.35;29.73;98507.84;4927704;29;1296;-79
2021/11/12 22:43:45;;;;;;;;;;;;;;;22.38;29.50;98506.94;4923861;29;1906;-78
2021/11/12 22:46:10;;;;;;;;;;;;;;;22.26;29.87;98505.59;4928381;29;1255;-78
2021/11/12 22:48:36;;;;;;;;;;;;;;;22.19;30.18;98504.94;4924098;29;916;-78
2021/11/12 22:51:01;;;;;;;;;;;;;;;22.40;30.40;98506.53;4946721;29;1034;-78
2021/11/12 22:53:27;;;;;;;;;;;;;;;22.62;29.78;98504.81;4943461;29;971;-78
2021/11/12 22:55:52;;;;;;;;;;;;;;;22.64;29.77;98499.50;4946681;29;1001;-78
2021/11/12 22:58:18;;;;;;;;;;;;;;;22.35;29.77;98505.00;4932977;29;1010;-78
2021/11/12 23:01:03;;;;;;;;;;;;;;;22.07;30.23;98500.69;4946966;29;1061;-78
2021/11/12 23:03:29;;;;;;;;;;;;;;;22.09;29.80;98499.03;4921421;29;1966;-78
2021/11/12 23:06:01;;;;;;;;;;;;;;;22.44;30.28;98493.06;4910950;29;1204;-78
2021/11/12 23:08:27;;;;;;;;;;;;;;;22.64;29.93;98493.84;4888396;29;1125;-79
2021/11/12 23:10:52;;;;;;;;;;;;;;;22.61;30.03;98500.38;4888478;29;1101;-78
2021/11/12 23:13:18;;;;;;;;;;;;;;;22.53;29.50;98488.38;4889278;29;913;-78
2021/11/12 23:15:44;;;;;;;;;;;;;;;22.48;29.61;98490.94;4930401;29;1059;-78
2021/11/12 23:18:10;;;;;;;;;;;;;;;22.26;29.74;98485.75;4928576;29;959;-78